Time;durP1;ratioP1;P1;durP2;ratioP2;P2;SDS_P1;SDS_P2;PMS_P1;PMS_P2;Temp;Humidity;BMP_temperature;BMP_pressure;BME280_temperature;BME280_humidity;BME280_pressure;Samples;Min_cycle;Max_cycle;Signal;HPM_P1;HPM_P2
2022/05/20 00:01:58;;;;;;;57.05;27.35;;;;;;;;;;4999969;28;20412;-80
2022/05/20 00:04:23;;;;;;;59.83;27.63;;;;;;;;;;5000351;28;20368;-80
2022/05/20 00:06:48;;;;;;;56.97;29.15;;;;;;;;;;5004816;28;20111;-80
2022/05/20 00:09:13;;;;;;;59.90;27.80;;;;;;;;;;5004673;28;20022;-80
2022/05/20 00:11:39;;;;;;;63.47;29.73;;;;;;;;;;5000159;28;20276;-80
2022/05/20 00:14:05;;;;;;;50.40;24.23;;;;;;;;;;5005661;28;20080;-81
2022/05/20 00:16:30;;;;;;;47.97;24.92;;;;;;;;;;5002015;28;20274;-81
2022/05/20 00:18:55;;;;;;;58.40;28.20;;;;;;;;;;5002063;28;20411;-81
2022/05/20 00:21:20;;;;;;;49.03;25.30;;;;;;;;;;5005600;28;20041;-80
2022/05/20 00:23:46;;;;;;;53.80;26.90;;;;;;;;;;5001939;28;20330;-80
2022/05/20 00:26:11;;;;;;;94.63;25.77;;;;;;;;;;5000327;28;21262;-80
2022/05/20 00:28:36;;;;;;;48.65;25.02;;;;;;;;;;5002863;28;20062;-79
2022/05/20 00:31:04;;;;;;;84.57;19.40;;;;;;;;;;5003425;28;20337;-79
2022/05/20 00:33:30;;;;;;;59.08;16.73;;;;;;;;;;5002951;28;20329;-79
2022/05/20 00:35:55;;;;;;;30.95;16.45;;;;;;;;;;5003641;28;20111;-79
2022/05/20 00:38:20;;;;;;;33.08;16.48;;;;;;;;;;5004294;28;20417;-79
2022/05/20 00:40:46;;;;;;;32.20;15.75;;;;;;;;;;5001466;28;20021;-79
2022/05/20 00:43:12;;;;;;;37.80;19.55;;;;;;;;;;4996914;28;20025;-79
2022/05/20 00:45:37;;;;;;;76.28;23.98;;;;;;;;;;5001470;28;20028;-79
2022/05/20 00:48:02;;;;;;;63.58;23.25;;;;;;;;;;5002903;28;20033;-79
2022/05/20 00:50:28;;;;;;;40.75;22.40;;;;;;;;;;5006242;28;20033;-79
2022/05/20 00:52:53;;;;;;;186.23;24.92;;;;;;;;;;5003502;28;20030;-79
2022/05/20 00:55:20;;;;;;;40.90;20.77;;;;;;;;;;5004820;28;20022;-79
2022/05/20 00:57:53;;;;;;;35.92;19.25;;;;;;;;;;5002797;28;20033;-79
2022/05/20 01:00:21;;;;;;;47.13;22.75;;;;;;;;;;5006424;28;20052;-79
2022/05/20 01:02:48;;;;;;;103.18;23.10;;;;;;;;;;5006562;28;20029;-79
2022/05/20 01:05:23;;;;;;;73.47;23.50;;;;;;;;;;5001339;28;20026;-79
2022/05/20 01:07:48;;;;;;;72.60;24.05;;;;;;;;;;5000440;28;20022;-78
2022/05/20 01:10:13;;;;;;;65.30;25.80;;;;;;;;;;5004380;28;20030;-79
2022/05/20 01:12:38;;;;;;;54.47;25.35;;;;;;;;;;5004160;28;20365;-79
2022/05/20 01:15:04;;;;;;;86.28;26.48;;;;;;;;;;5001364;28;20141;-79
2022/05/20 01:17:30;;;;;;;63.33;26.35;;;;;;;;;;5000843;28;20021;-79
2022/05/20 01:19:56;;;;;;;48.00;24.90;;;;;;;;;;5005107;28;20275;-79
2022/05/20 01:22:34;;;;;;;45.78;22.45;;;;;;;;;;5001362;28;20041;-79
2022/05/20 01:25:00;;;;;;;47.65;22.77;;;;;;;;;;5004577;28;20398;-78
2022/05/20 01:27:25;;;;;;;53.03;23.73;;;;;;;;;;5001169;28;20114;-79
2022/05/20 01:29:50;;;;;;;48.80;23.85;;;;;;;;;;5000706;28;20052;-79
2022/05/20 01:32:16;;;;;;;48.83;22.87;;;;;;;;;;5001041;28;20065;-79
2022/05/20 01:34:41;;;;;;;58.07;23.17;;;;;;;;;;5000469;28;20275;-79
2022/05/20 01:37:06;;;;;;;53.25;22.70;;;;;;;;;;5002556;28;20287;-78
2022/05/20 01:39:31;;;;;;;73.13;23.73;;;;;;;;;;5000862;28;20049;-78
2022/05/20 01:41:57;;;;;;;53.38;23.67;;;;;;;;;;5001606;28;20279;-79
2022/05/20 01:44:22;;;;;;;57.40;24.02;;;;;;;;;;5004532;28;20056;-78
2022/05/20 01:47:10;;;;;;;52.13;25.27;;;;;;;;;;5000248;28;20097;-78
2022/05/20 01:50:05;;;;;;;54.83;25.67;;;;;;;;;;4996548;28;20112;-79
2022/05/20 01:52:34;;;;;;;60.13;25.00;;;;;;;;;;4990340;28;20029;-79
2022/05/20 01:55:03;;;;;;;61.88;26.42;;;;;;;;;;5002910;28;20031;-79
2022/05/20 01:57:36;;;;;;;62.08;25.42;;;;;;;;;;5000604;28;21397;-79
2022/05/20 02:00:05;;;;;;;47.13;23.50;;;;;;;;;;5000112;28;20465;-79
2022/05/20 02:02:35;;;;;;;52.38;23.67;;;;;;;;;;5003682;28;20025;-78
2022/05/20 02:05:13;;;;;;;45.60;22.70;;;;;;;;;;4995662;28;20022;-79
2022/05/20 02:07:40;;;;;;;54.38;23.58;;;;;;;;;;5002972;28;20018;-79
2022/05/20 02:10:05;;;;;;;48.03;23.52;;;;;;;;;;5002677;28;20064;-79
2022/05/20 02:12:33;;;;;;;63.80;23.25;;;;;;;;;;5000888;28;20030;-79
2022/05/20 02:14:58;;;;;;;51.30;23.63;;;;;;;;;;5000540;28;21267;-79
2022/05/20 02:17:24;;;;;;;56.60;24.92;;;;;;;;;;5001918;28;20033;-79
2022/05/20 02:19:54;;;;;;;63.55;27.23;;;;;;;;;;4997643;28;20025;-79
2022/05/20 02:22:21;;;;;;;54.78;25.67;;;;;;;;;;5000449;28;20500;-79
2022/05/20 02:24:47;;;;;;;53.33;25.67;;;;;;;;;;5002563;28;20485;-79
2022/05/20 02:27:17;;;;;;;62.42;26.85;;;;;;;;;;5004349;28;20101;-78
2022/05/20 02:29:49;;;;;;;58.83;25.08;;;;;;;;;;4998117;28;20415;-79
2022/05/20 02:32:18;;;;;;;57.60;26.38;;;;;;;;;;5003463;28;20026;-79
2022/05/20 02:34:44;;;;;;;48.13;24.10;;;;;;;;;;5003575;28;20132;-78
2022/05/20 02:37:27;;;;;;;60.10;26.20;;;;;;;;;;4999806;28;20042;-79
2022/05/20 02:39:53;;;;;;;61.47;26.60;;;;;;;;;;5003613;28;20084;-79
2022/05/20 02:42:18;;;;;;;53.60;26.15;;;;;;;;;;5002267;28;20476;-79
2022/05/20 02:44:43;;;;;;;56.65;25.25;;;;;;;;;;4997822;28;20022;-79
2022/05/20 02:47:08;;;;;;;56.40;25.42;;;;;;;;;;4995504;28;20034;-79
2022/05/20 02:49:34;;;;;;;52.88;25.35;;;;;;;;;;5002093;28;20040;-79
2022/05/20 02:51:59;;;;;;;57.50;27.02;;;;;;;;;;4998088;28;20018;-79
2022/05/20 02:54:25;;;;;;;66.55;28.90;;;;;;;;;;5004941;28;20105;-78
2022/05/20 02:56:50;;;;;;;63.50;30.02;;;;;;;;;;4998049;28;20480;-78
2022/05/20 03:04:43;;;;;;;51.08;26.73;;;;;;;;;;5000059;28;20037;-79
2022/05/20 03:07:09;;;;;;;51.03;27.30;;;;;;;;;;5002262;28;20049;-79
2022/05/20 03:09:34;;;;;;;47.97;24.77;;;;;;;;;;5003526;28;20068;-78
2022/05/20 03:11:59;;;;;;;77.32;27.98;;;;;;;;;;4999154;28;20041;-78
2022/05/20 03:14:24;;;;;;;66.47;28.58;;;;;;;;;;5003883;28;20120;-78
2022/05/20 03:16:50;;;;;;;91.55;30.10;;;;;;;;;;4999747;28;20018;-79
2022/05/20 03:19:15;;;;;;;84.88;29.45;;;;;;;;;;4999442;28;20091;-78
2022/05/20 03:21:42;;;;;;;92.93;32.70;;;;;;;;;;4998104;28;20096;-78
2022/05/20 03:24:07;;;;;;;66.72;29.30;;;;;;;;;;4999865;28;20349;-79
2022/05/20 03:26:33;;;;;;;68.13;30.58;;;;;;;;;;4995496;28;20097;-79
2022/05/20 03:28:59;;;;;;;58.58;27.90;;;;;;;;;;4999069;28;20373;-79
2022/05/20 03:31:25;;;;;;;80.68;28.17;;;;;;;;;;5003855;28;20484;-79
2022/05/20 03:33:50;;;;;;;59.38;27.25;;;;;;;;;;5002954;28;20034;-79
2022/05/20 03:36:15;;;;;;;95.35;32.42;;;;;;;;;;5000241;28;20444;-79
2022/05/20 03:38:40;;;;;;;96.68;32.20;;;;;;;;;;5000680;28;20196;-79
2022/05/20 03:41:06;;;;;;;64.50;30.63;;;;;;;;;;5000551;28;20277;-78
2022/05/20 03:43:33;;;;;;;62.53;28.08;;;;;;;;;;5001699;28;20451;-79
2022/05/20 03:45:58;;;;;;;56.75;29.42;;;;;;;;;;4999639;28;20038;-78
2022/05/20 03:48:23;;;;;;;61.70;28.17;;;;;;;;;;5006266;28;20037;-79
2022/05/20 03:50:48;;;;;;;82.40;31.02;;;;;;;;;;5004463;28;20695;-78
2022/05/20 03:53:14;;;;;;;104.22;32.35;;;;;;;;;;4996854;28;20351;-79
2022/05/20 03:55:39;;;;;;;122.45;34.17;;;;;;;;;;4997661;28;20025;-79
2022/05/20 03:58:04;;;;;;;81.93;31.33;;;;;;;;;;4999436;28;20061;-78
2022/05/20 04:00:29;;;;;;;82.20;29.52;;;;;;;;;;4997718;28;20053;-78
2022/05/20 04:02:54;;;;;;;62.97;27.65;;;;;;;;;;5003030;28;20037;-78
2022/05/20 04:05:20;;;;;;;71.87;29.63;;;;;;;;;;4996248;28;20033;-78
2022/05/20 04:07:45;;;;;;;68.82;30.25;;;;;;;;;;4998472;28;20350;-78
2022/05/20 04:10:10;;;;;;;58.80;28.10;;;;;;;;;;5002785;28;20037;-78
2022/05/20 04:12:37;;;;;;;54.35;27.48;;;;;;;;;;5000263;28;20275;-78
2022/05/20 04:15:04;;;;;;;59.30;29.33;;;;;;;;;;4997664;28;20029;-78
2022/05/20 04:17:29;;;;;;;74.80;29.30;;;;;;;;;;4997438;28;20052;-78
2022/05/20 04:19:54;;;;;;;58.57;29.17;;;;;;;;;;4996616;28;20038;-78
2022/05/20 04:22:23;;;;;;;58.55;29.02;;;;;;;;;;5000993;28;20267;-78
2022/05/20 04:24:48;;;;;;;61.60;28.27;;;;;;;;;;4999670;28;20041;-78
2022/05/20 04:27:15;;;;;;;70.20;29.38;;;;;;;;;;5002391;28;20014;-78
2022/05/20 04:29:40;;;;;;;59.53;28.35;;;;;;;;;;5003082;28;20053;-78
2022/05/20 04:32:05;;;;;;;64.93;28.77;;;;;;;;;;5003088;28;20333;-78
2022/05/20 04:34:31;;;;;;;56.35;27.85;;;;;;;;;;5004902;28;20034;-79
2022/05/20 04:36:56;;;;;;;60.83;28.90;;;;;;;;;;4998147;28;20034;-78
2022/05/20 04:39:21;;;;;;;56.20;28.48;;;;;;;;;;4998645;28;20703;-79
2022/05/20 04:47:16;;;;;;;55.97;27.55;;;;;;;;;;5001226;28;20416;-78
2022/05/20 04:49:42;;;;;;;61.20;28.50;;;;;;;;;;5002793;28;20053;-78
2022/05/20 04:52:07;;;;;;;66.28;26.88;;;;;;;;;;5004741;28;20456;-78
2022/05/20 04:54:51;;;;;;;58.60;28.50;;;;;;;;;;5006356;28;20106;-78
2022/05/20 04:57:27;;;;;;;65.37;29.00;;;;;;;;;;5002890;28;20038;-78
2022/05/20 04:59:53;;;;;;;65.72;28.67;;;;;;;;;;5003394;28;20111;-78
2022/05/20 05:02:19;;;;;;;72.03;28.15;;;;;;;;;;5007298;28;20096;-78
2022/05/20 05:04:44;;;;;;;68.03;27.27;;;;;;;;;;5006196;28;20500;-78
2022/05/20 05:07:11;;;;;;;79.82;28.77;;;;;;;;;;5003198;28;20054;-78
2022/05/20 05:09:37;;;;;;;55.13;27.58;;;;;;;;;;5006172;28;20049;-77
2022/05/20 05:12:03;;;;;;;63.33;29.75;;;;;;;;;;5005045;28;20116;-77
2022/05/20 05:14:28;;;;;;;60.17;28.13;;;;;;;;;;5000990;28;20028;-78
2022/05/20 05:16:54;;;;;;;64.78;29.85;;;;;;;;;;5002546;28;20285;-77
2022/05/20 05:19:19;;;;;;;64.32;29.55;;;;;;;;;;5009281;28;20022;-77
2022/05/20 05:21:44;;;;;;;69.33;30.23;;;;;;;;;;5006503;28;20335;-78
2022/05/20 05:24:09;;;;;;;64.80;29.15;;;;;;;;;;5006292;28;20282;-77
2022/05/20 05:26:35;;;;;;;74.47;30.30;;;;;;;;;;5002194;28;20026;-77
2022/05/20 05:29:01;;;;;;;54.28;27.30;;;;;;;;;;5002705;28;20030;-75
2022/05/20 05:31:26;;;;;;;56.47;28.58;;;;;;;;;;4999157;28;20018;-77
2022/05/20 05:33:51;;;;;;;63.80;29.80;;;;;;;;;;5005331;28;20022;-78
2022/05/20 05:36:18;;;;;;;75.53;31.42;;;;;;;;;;4995585;28;20121;-78
2022/05/20 05:38:43;;;;;;;66.88;31.50;;;;;;;;;;5002832;28;20511;-78
2022/05/20 05:41:10;;;;;;;82.63;35.45;;;;;;;;;;5000692;28;20899;-78
2022/05/20 05:43:35;;;;;;;70.72;31.33;;;;;;;;;;4998935;28;20041;-78
2022/05/20 05:46:00;;;;;;;61.90;29.88;;;;;;;;;;5002448;28;20026;-77
2022/05/20 05:48:25;;;;;;;74.20;33.35;;;;;;;;;;4995552;28;20021;-78
2022/05/20 05:50:51;;;;;;;73.53;34.28;;;;;;;;;;5002038;28;20567;-78
2022/05/20 05:53:17;;;;;;;69.00;32.57;;;;;;;;;;5005144;28;20022;-78
2022/05/20 05:55:44;;;;;;;77.60;32.92;;;;;;;;;;5002662;28;20337;-77
2022/05/20 05:58:09;;;;;;;81.68;34.97;;;;;;;;;;5007074;28;20022;-75
2022/05/20 06:00:35;;;;;;;83.53;34.13;;;;;;;;;;5007241;28;20464;-71
2022/05/20 06:03:00;;;;;;;99.25;40.47;;;;;;;;;;5005083;28;20279;-75
2022/05/20 06:05:26;;;;;;;87.40;37.10;;;;;;;;;;4993430;28;20885;-75
2022/05/20 06:07:52;;;;;;;93.45;37.83;;;;;;;;;;5001741;28;20259;-74
2022/05/20 06:10:17;;;;;;;122.95;46.78;;;;;;;;;;5001429;28;20488;-76
2022/05/20 06:12:43;;;;;;;101.03;39.92;;;;;;;;;;4999813;28;20029;-75
2022/05/20 06:15:10;;;;;;;107.50;41.22;;;;;;;;;;4994928;28;20500;-75
2022/05/20 06:17:35;;;;;;;104.05;41.88;;;;;;;;;;4997828;28;20587;-74
2022/05/20 06:20:01;;;;;;;106.37;39.03;;;;;;;;;;5000451;28;20033;-77
2022/05/20 06:22:26;;;;;;;104.38;39.67;;;;;;;;;;4998982;28;20029;-77
2022/05/20 06:24:52;;;;;;;90.05;36.60;;;;;;;;;;4996985;28;20046;-75
2022/05/20 06:27:17;;;;;;;84.63;31.42;;;;;;;;;;4995671;28;20428;-76
2022/05/20 06:29:42;;;;;;;87.47;33.55;;;;;;;;;;4998616;28;20186;-75
2022/05/20 06:32:07;;;;;;;84.82;36.35;;;;;;;;;;5001040;28;20040;-75
2022/05/20 06:39:49;;;;;;;89.00;34.13;;;;;;;;;;4995119;28;20875;-74
2022/05/20 06:40:07;;;;;;;72.13;32.08;;;;;;;;;;5000981;28;20041;-74
2022/05/20 06:42:33;;;;;;;67.15;29.67;;;;;;;;;;4998526;28;20285;-75
2022/05/20 06:44:58;;;;;;;58.45;25.52;;;;;;;;;;4994948;28;21033;-76
2022/05/20 06:47:23;;;;;;;51.50;22.15;;;;;;;;;;4999118;28;20541;-76
2022/05/20 06:49:49;;;;;;;51.33;20.50;;;;;;;;;;5001087;28;20045;-75
2022/05/20 06:52:14;;;;;;;42.72;19.90;;;;;;;;;;4998548;28;20026;-76
2022/05/20 06:54:39;;;;;;;33.43;17.93;;;;;;;;;;4998494;28;20045;-75
2022/05/20 06:57:04;;;;;;;35.95;17.65;;;;;;;;;;4998943;28;20072;-76
2022/05/20 06:59:29;;;;;;;28.40;14.98;;;;;;;;;;4999218;28;20022;-75
2022/05/20 07:01:55;;;;;;;26.55;13.50;;;;;;;;;;4997626;28;20479;-73
2022/05/20 07:04:20;;;;;;;24.85;13.68;;;;;;;;;;4994742;28;20022;-75
2022/05/20 07:06:46;;;;;;;28.48;13.77;;;;;;;;;;4998257;28;20018;-75
2022/05/20 07:09:11;;;;;;;20.58;11.93;;;;;;;;;;4994849;28;20021;-69
2022/05/20 07:11:36;;;;;;;23.98;11.10;;;;;;;;;;4999631;28;20754;-74
2022/05/20 07:14:02;;;;;;;20.52;10.27;;;;;;;;;;5001345;28;20418;-74
2022/05/20 07:16:29;;;;;;;21.50;10.05;;;;;;;;;;4996562;28;20034;-75
2022/05/20 07:18:54;;;;;;;19.65;9.30;;;;;;;;;;4997382;28;20034;-75
2022/05/20 07:21:20;;;;;;;17.80;9.75;;;;;;;;;;5000746;28;20017;-74
2022/05/20 07:23:45;;;;;;;16.70;9.18;;;;;;;;;;5000817;28;20065;-73
2022/05/20 07:26:13;;;;;;;14.87;8.10;;;;;;;;;;4999448;28;20120;-75
2022/05/20 07:28:38;;;;;;;15.80;8.50;;;;;;;;;;5001967;28;20331;-74
2022/05/20 07:31:04;;;;;;;11.90;8.35;;;;;;;;;;5002117;28;20037;-75
2022/05/20 07:33:30;;;;;;;21.15;9.05;;;;;;;;;;5000481;28;20101;-75
2022/05/20 07:35:56;;;;;;;15.23;6.63;;;;;;;;;;4999816;28;20024;-73
2022/05/20 07:38:21;;;;;;;12.65;6.70;;;;;;;;;;4998378;28;20053;-74
2022/05/20 07:40:47;;;;;;;15.18;7.05;;;;;;;;;;5000284;28;20077;-75
2022/05/20 07:43:12;;;;;;;15.55;8.57;;;;;;;;;;5001323;28;20026;-75
2022/05/20 07:45:37;;;;;;;16.70;8.57;;;;;;;;;;4998389;28;20030;-75
2022/05/20 07:48:03;;;;;;;17.45;7.85;;;;;;;;;;4998419;28;20527;-74
2022/05/20 07:50:30;;;;;;;22.15;8.45;;;;;;;;;;4997991;28;20033;-75
2022/05/20 07:55:41;;;;;;;14.07;8.23;;;;;;;;;;4999900;28;20129;-76
2022/05/20 07:58:08;;;;;;;14.80;9.48;;;;;;;;;;4998517;28;20053;-75
2022/05/20 08:00:33;;;;;;;21.58;10.27;;;;;;;;;;4997798;28;20041;-77
2022/05/20 08:03:00;;;;;;;16.45;8.88;;;;;;;;;;4995985;28;20025;-75
2022/05/20 08:05:26;;;;;;;16.77;9.88;;;;;;;;;;4999132;28;20030;-75
2022/05/20 08:07:51;;;;;;;18.05;9.90;;;;;;;;;;5007444;28;20022;-73
2022/05/20 08:10:18;;;;;;;17.10;9.18;;;;;;;;;;5000253;28;20030;-76
2022/05/20 08:12:43;;;;;;;16.77;8.82;;;;;;;;;;5000646;28;20041;-73
2022/05/20 08:15:09;;;;;;;16.33;9.60;;;;;;;;;;5003625;28;20034;-72
2022/05/20 08:17:36;;;;;;;15.70;9.63;;;;;;;;;;5004229;28;20030;-74
2022/05/20 08:20:02;;;;;;;16.92;9.82;;;;;;;;;;5005843;28;20345;-73
2022/05/20 08:22:27;;;;;;;22.23;9.70;;;;;;;;;;5006754;28;20036;-71
2022/05/20 08:24:53;;;;;;;18.57;9.73;;;;;;;;;;5004701;28;20034;-71
2022/05/20 08:27:22;;;;;;;18.08;9.85;;;;;;;;;;5004095;28;20271;-71
2022/05/20 08:29:47;;;;;;;14.35;8.15;;;;;;;;;;5009939;28;20096;-71
2022/05/20 08:32:13;;;;;;;13.57;7.97;;;;;;;;;;5010372;28;20224;-72
2022/05/20 08:34:38;;;;;;;20.77;8.75;;;;;;;;;;5007360;28;20465;-73
2022/05/20 08:37:04;;;;;;;10.75;7.43;;;;;;;;;;5004613;28;20132;-73
2022/05/20 08:39:29;;;;;;;14.40;8.07;;;;;;;;;;5009896;28;20034;-77
2022/05/20 08:41:54;;;;;;;14.43;7.00;;;;;;;;;;5010164;28;20057;-72
2022/05/20 08:44:20;;;;;;;11.25;5.60;;;;;;;;;;5008473;28;20283;-73
2022/05/20 08:46:46;;;;;;;12.05;5.88;;;;;;;;;;5004114;28;20453;-72
2022/05/20 08:49:16;;;;;;;9.82;5.18;;;;;;;;;;5005809;28;20037;-74
2022/05/20 08:51:46;;;;;;;4.75;3.65;;;;;;;;;;5007876;28;20022;-74
2022/05/20 08:54:11;;;;;;;9.70;4.75;;;;;;;;;;5008175;28;20150;-73
2022/05/20 08:56:37;;;;;;;6.90;4.20;;;;;;;;;;5007133;28;20105;-73
2022/05/20 08:59:04;;;;;;;10.50;3.75;;;;;;;;;;5003277;28;20124;-75
2022/05/20 09:01:38;;;;;;;8.50;3.63;;;;;;;;;;5009481;28;20032;-73
2022/05/20 09:04:07;;;;;;;9.98;3.85;;;;;;;;;;5004866;28;20445;-73
2022/05/20 09:06:36;;;;;;;9.38;3.70;;;;;;;;;;5003012;28;20022;-73
2022/05/20 09:09:09;;;;;;;5.57;3.40;;;;;;;;;;5002849;28;20026;-72
2022/05/20 09:11:34;;;;;;;7.22;3.92;;;;;;;;;;5006827;28;20026;-72
2022/05/20 09:16:56;;;;;;;11.90;5.97;;;;;;;;;;4998862;28;20056;-74
2022/05/20 09:19:27;;;;;;;14.68;4.53;;;;;;;;;;5004281;28;20068;-75
2022/05/20 09:22:00;;;;;;;8.50;5.00;;;;;;;;;;5001970;28;20018;-76
2022/05/20 09:24:25;;;;;;;8.93;4.90;;;;;;;;;;4999751;28;20121;-72
2022/05/20 09:26:59;;;;;;;9.67;4.97;;;;;;;;;;5004447;28;20030;-73
2022/05/20 09:29:29;;;;;;;11.20;4.93;;;;;;;;;;5004906;28;20040;-73
2022/05/20 09:31:58;;;;;;;10.35;5.57;;;;;;;;;;5000887;28;20100;-72
2022/05/20 09:34:26;;;;;;;9.18;5.93;;;;;;;;;;4996482;28;20022;-73
2022/05/20 09:36:57;;;;;;;16.70;5.57;;;;;;;;;;5000067;28;20105;-74
2022/05/20 09:39:27;;;;;;;9.57;4.80;;;;;;;;;;5003390;28;20076;-75
2022/05/20 09:41:56;;;;;;;13.57;5.93;;;;;;;;;;5000434;28;20018;-73
2022/05/20 09:44:24;;;;;;;8.98;5.53;;;;;;;;;;5001166;28;20022;-74
2022/05/20 09:46:51;;;;;;;11.00;5.60;;;;;;;;;;5000096;28;20018;-72
2022/05/20 09:49:20;;;;;;;10.82;6.10;;;;;;;;;;5004472;28;20100;-73
2022/05/20 09:51:51;;;;;;;13.32;5.18;;;;;;;;;;5005056;28;20048;-72
2022/05/20 09:54:28;;;;;;;9.82;6.18;;;;;;;;;;5003617;28;20178;-72
2022/05/20 09:56:58;;;;;;;9.90;6.05;;;;;;;;;;5002404;28;20330;-75
2022/05/20 09:59:42;;;;;;;12.77;7.43;;;;;;;;;;5000584;28;20026;-77
2022/05/20 10:02:13;;;;;;;11.32;7.68;;;;;;;;;;5000670;28;20697;-76
2022/05/20 10:04:53;;;;;;;12.60;6.90;;;;;;;;;;5000931;28;20057;-71
2022/05/20 10:07:27;;;;;;;10.90;7.03;;;;;;;;;;4998899;28;20608;-72
2022/05/20 10:09:54;;;;;;;10.27;7.05;;;;;;;;;;5002778;28;21093;-73
2022/05/20 10:12:27;;;;;;;10.77;7.43;;;;;;;;;;5003123;28;20022;-76
2022/05/20 10:15:07;;;;;;;41.92;10.07;;;;;;;;;;4995626;28;20036;-73
2022/05/20 10:17:57;;;;;;;10.48;7.75;;;;;;;;;;4995204;28;20444;-73
2022/05/20 10:20:29;;;;;;;14.57;8.13;;;;;;;;;;5004479;28;20025;-73
2022/05/20 10:23:13;;;;;;;15.70;8.50;;;;;;;;;;4997727;28;20045;-75
2022/05/20 10:25:44;;;;;;;11.35;7.38;;;;;;;;;;4998207;28;20425;-74
2022/05/20 10:28:12;;;;;;;15.52;8.90;;;;;;;;;;4995525;28;20053;-74
2022/05/20 10:33:28;;;;;;;12.15;8.40;;;;;;;;;;5004271;28;20024;-72
2022/05/20 10:36:12;;;;;;;19.58;10.27;;;;;;;;;;4998510;28;20026;-75
2022/05/20 10:38:37;;;;;;;13.07;9.75;;;;;;;;;;4999203;28;20025;-76
2022/05/20 10:41:21;;;;;;;17.83;9.70;;;;;;;;;;5004758;28;20032;-76
2022/05/20 10:49:57;;;;;;;14.95;10.48;;;;;;;;;;4995038;28;20117;-71
2022/05/20 10:52:42;;;;;;;19.17;11.77;;;;;;;;;;5003268;28;20104;-72
2022/05/20 10:55:10;;;;;;;20.52;12.27;;;;;;;;;;4996714;28;20084;-73
2022/05/20 10:57:42;;;;;;;18.25;12.13;;;;;;;;;;5001028;28;20045;-74
2022/05/20 11:00:17;;;;;;;22.77;13.30;;;;;;;;;;5002391;28;20049;-72
2022/05/20 11:03:01;;;;;;;24.13;14.10;;;;;;;;;;5007216;28;20080;-75
2022/05/20 11:05:38;;;;;;;24.65;14.25;;;;;;;;;;5000169;28;20022;-73
2022/05/20 11:08:03;;;;;;;17.63;12.60;;;;;;;;;;5002539;28;20045;-74
2022/05/20 11:10:29;;;;;;;19.08;12.20;;;;;;;;;;5003577;28;20030;-73
2022/05/20 11:12:54;;;;;;;19.40;13.45;;;;;;;;;;5002246;28;20035;-73
2022/05/20 11:15:19;;;;;;;19.10;12.53;;;;;;;;;;4998170;28;20478;-71
2022/05/20 11:18:09;;;;;;;23.48;12.50;;;;;;;;;;4999589;28;20026;-72
2022/05/20 11:20:53;;;;;;;20.85;12.82;;;;;;;;;;4994506;28;20049;-74
2022/05/20 11:23:36;;;;;;;20.98;12.52;;;;;;;;;;5006208;28;20019;-72
2022/05/20 11:26:04;;;;;;;21.42;13.10;;;;;;;;;;5000933;28;20030;-74
2022/05/20 11:28:35;;;;;;;18.08;12.60;;;;;;;;;;5002352;28;20025;-72
2022/05/20 11:31:19;;;;;;;23.00;15.00;;;;;;;;;;5001526;28;20029;-73
2022/05/20 11:33:44;;;;;;;20.35;13.88;;;;;;;;;;5001067;28;20026;-72
2022/05/20 11:36:22;;;;;;;20.53;14.53;;;;;;;;;;4999167;28;20392;-73
2022/05/20 11:38:57;;;;;;;20.50;13.90;;;;;;;;;;4992833;28;20034;-74
2022/05/20 11:41:25;;;;;;;26.25;15.30;;;;;;;;;;5000623;28;20014;-73
2022/05/20 11:43:50;;;;;;;25.17;16.92;;;;;;;;;;5004437;28;20036;-73
2022/05/20 11:46:22;;;;;;;23.02;14.88;;;;;;;;;;5001890;28;20455;-72
2022/05/20 11:49:04;;;;;;;25.17;16.50;;;;;;;;;;5008481;28;20113;-73
2022/05/20 11:51:41;;;;;;;28.63;19.50;;;;;;;;;;4998870;28;20069;-74
2022/05/20 11:54:17;;;;;;;29.75;17.52;;;;;;;;;;4998893;28;20476;-72
2022/05/20 11:56:55;;;;;;;28.02;17.52;;;;;;;;;;4999964;28;20085;-73
2022/05/20 11:59:26;;;;;;;32.60;18.55;;;;;;;;;;5003215;28;20254;-72
2022/05/20 12:01:53;;;;;;;25.48;16.77;;;;;;;;;;5000231;28;20018;-74
2022/05/20 12:04:19;;;;;;;29.45;20.42;;;;;;;;;;5000281;28;20026;-76
2022/05/20 12:06:47;;;;;;;25.90;17.40;;;;;;;;;;5000317;28;20026;-72
2022/05/20 12:09:27;;;;;;;28.48;18.33;;;;;;;;;;5004168;28;20117;-72
2022/05/20 12:12:13;;;;;;;27.38;18.88;;;;;;;;;;5007309;28;20450;-72
2022/05/20 12:14:51;;;;;;;28.90;17.25;;;;;;;;;;5003772;28;20048;-73
2022/05/20 12:17:28;;;;;;;34.00;18.85;;;;;;;;;;5004564;28;20084;-73
2022/05/20 12:25:39;;;;;;;27.10;17.45;;;;;;;;;;4998242;28;20056;-72
2022/05/20 12:28:22;;;;;;;30.08;17.92;;;;;;;;;;5006225;28;20034;-72
2022/05/20 12:31:00;;;;;;;35.03;20.05;;;;;;;;;;5002612;28;20033;-72
2022/05/20 12:33:26;;;;;;;37.17;21.95;;;;;;;;;;5001865;28;20467;-73
2022/05/20 12:36:16;;;;;;;40.47;22.40;;;;;;;;;;5003484;28;20030;-73
2022/05/20 12:38:42;;;;;;;41.97;24.30;;;;;;;;;;5002142;28;20030;-73
2022/05/20 12:41:18;;;;;;;43.78;25.65;;;;;;;;;;5005017;28;20040;-75
2022/05/20 12:43:46;;;;;;;49.28;25.50;;;;;;;;;;5002585;28;20099;-73
2022/05/20 12:46:18;;;;;;;48.28;24.08;;;;;;;;;;5007074;28;20093;-73
2022/05/20 12:48:43;;;;;;;52.83;30.60;;;;;;;;;;5002099;28;20076;-74
2022/05/20 12:51:09;;;;;;;54.13;30.33;;;;;;;;;;4996541;28;20033;-73
2022/05/20 12:53:35;;;;;;;53.20;29.95;;;;;;;;;;5006284;28;20388;-73
2022/05/20 12:56:00;;;;;;;50.05;25.85;;;;;;;;;;5001683;28;20439;-73
2022/05/20 12:58:28;;;;;;;56.92;26.02;;;;;;;;;;5002191;28;20451;-73
2022/05/20 13:00:54;;;;;;;55.20;27.05;;;;;;;;;;5005779;28;20017;-74
2022/05/20 13:03:23;;;;;;;52.90;27.80;;;;;;;;;;5004674;28;20452;-73
2022/05/20 13:05:51;;;;;;;59.67;28.55;;;;;;;;;;5004288;28;20048;-73
2022/05/20 13:08:18;;;;;;;61.63;31.33;;;;;;;;;;5004795;28;20108;-73
2022/05/20 13:10:43;;;;;;;57.63;29.20;;;;;;;;;;5000063;28;20029;-73
2022/05/20 13:13:13;;;;;;;62.75;30.75;;;;;;;;;;5006378;28;20030;-72
2022/05/20 13:15:43;;;;;;;71.20;35.05;;;;;;;;;;5002196;28;20048;-72
2022/05/20 13:18:13;;;;;;;63.55;29.30;;;;;;;;;;5000049;28;20018;-71
2022/05/20 13:20:39;;;;;;;62.42;29.85;;;;;;;;;;5000084;28;20040;-72
2022/05/20 13:23:06;;;;;;;57.53;27.83;;;;;;;;;;4999976;28;20029;-72
2022/05/20 13:25:31;;;;;;;70.03;31.05;;;;;;;;;;5001322;28;20069;-72
2022/05/20 13:27:56;;;;;;;63.87;32.00;;;;;;;;;;4998482;28;20018;-73
2022/05/20 13:30:23;;;;;;;68.28;31.73;;;;;;;;;;5004021;28;20313;-72
2022/05/20 13:32:49;;;;;;;63.67;32.00;;;;;;;;;;5002986;28;20600;-73
2022/05/20 13:35:14;;;;;;;73.50;36.05;;;;;;;;;;5003927;28;20030;-72
2022/05/20 13:37:43;;;;;;;69.85;33.78;;;;;;;;;;5000627;28;20113;-72
2022/05/20 13:40:11;;;;;;;68.43;34.83;;;;;;;;;;5002033;28;20140;-72
2022/05/20 13:42:37;;;;;;;78.32;40.25;;;;;;;;;;4999876;28;20045;-75
2022/05/20 13:45:07;;;;;;;71.20;32.72;;;;;;;;;;5000012;28;20169;-72
2022/05/20 13:50:18;;;;;;;74.03;35.22;;;;;;;;;;4998224;28;20076;-72
2022/05/20 13:52:44;;;;;;;79.88;39.65;;;;;;;;;;4997793;28;20030;-74
2022/05/20 13:55:11;;;;;;;82.45;38.75;;;;;;;;;;4998799;28;20028;-72
2022/05/20 13:57:38;;;;;;;101.57;51.63;;;;;;;;;;5001488;28;20034;-76
2022/05/20 14:00:17;;;;;;;104.07;54.05;;;;;;;;;;5000572;28;20033;-72
2022/05/20 14:02:48;;;;;;;108.90;58.85;;;;;;;;;;4996505;28;20586;-71
2022/05/20 14:05:21;;;;;;;105.80;56.00;;;;;;;;;;4994476;28;20204;-68
2022/05/20 14:07:52;;;;;;;69.73;42.90;;;;;;;;;;4995771;28;20030;-69
2022/05/20 14:10:17;;;;;;;65.88;38.30;;;;;;;;;;5006197;28;20606;-74
2022/05/20 14:12:45;;;;;;;51.70;35.33;;;;;;;;;;5005298;28;20499;-69
2022/05/20 14:15:16;;;;;;;46.63;28.35;;;;;;;;;;4994531;28;20713;-70
2022/05/20 14:17:42;;;;;;;51.30;32.00;;;;;;;;;;5002490;28;20108;-69
2022/05/20 14:20:11;;;;;;;44.28;27.77;;;;;;;;;;5004466;28;20049;-73
2022/05/20 14:22:36;;;;;;;39.67;24.35;;;;;;;;;;5003226;28;20445;-72
2022/05/20 14:25:07;;;;;;;39.28;25.98;;;;;;;;;;4996633;28;20029;-72
2022/05/20 14:27:39;;;;;;;35.83;19.70;;;;;;;;;;5000535;28;20025;-71
2022/05/20 14:30:14;;;;;;;29.08;17.85;;;;;;;;;;5002565;28;20053;-71
2022/05/20 14:32:39;;;;;;;23.65;14.23;;;;;;;;;;4997848;28;20040;-73
2022/05/20 14:35:04;;;;;;;15.77;12.18;;;;;;;;;;5001514;28;20033;-69
2022/05/20 14:37:33;;;;;;;15.73;11.10;;;;;;;;;;5005934;28;20731;-70
2022/05/20 14:40:00;;;;;;;15.32;8.93;;;;;;;;;;4995451;28;20033;-71
2022/05/20 14:42:28;;;;;;;16.77;8.75;;;;;;;;;;5003209;28;20296;-70
2022/05/20 14:44:55;;;;;;;12.32;8.23;;;;;;;;;;5001643;28;20030;-70
2022/05/20 14:47:28;;;;;;;11.27;6.95;;;;;;;;;;5002209;28;20136;-72
2022/05/20 14:50:05;;;;;;;14.48;7.60;;;;;;;;;;5009240;28;20357;-72
2022/05/20 14:52:34;;;;;;;16.65;8.40;;;;;;;;;;5005121;28;20072;-73
2022/05/20 14:54:59;;;;;;;15.52;8.00;;;;;;;;;;5002653;28;20150;-70
2022/05/20 14:57:26;;;;;;;13.73;8.13;;;;;;;;;;5001357;28;20105;-70
2022/05/20 15:00:04;;;;;;;11.52;6.80;;;;;;;;;;5009030;28;20024;-69
2022/05/20 15:02:29;;;;;;;17.42;7.85;;;;;;;;;;5000130;28;20068;-74
2022/05/20 15:04:54;;;;;;;11.48;7.55;;;;;;;;;;4997043;28;20038;-73